Glenwood, Illinois
Current Conditions -  °F | °C
As of 5:20 PM on Tuesday 25 Nov 2014 (Local Time) from KIGQ Reporting Station
Broken Clouds Broken Clouds  
Wind Chill: 16°   Ceiling: 2000
Heat Index: 24°   Visibility: 10mi
Dew Point: 18°   Wind: 7mph
Humidity: 77%   Direction: 280°W
Pressure: 30.17"   Gusts: NA
Location:  41.55°N, 87.61°W
Report Text: KIGQ 252320Z AUTO 28006KT 10SM BKN020 M05/M08 A3017 RMK AO2 T10461080
Loading
Personal Weather Stations






























Interactive Weather Map New forecast layout! Learn more

10-Day Weather Forecast

Advertisements
Track Severe Weather on mobile